sensor_id;sensor_type;location;lat;lon;timestamp;temperature;humidity
66506;HTU21D;53332;51.082;5.832;2022-09-09T00:00:19;15.22;118.99
66506;HTU21D;53332;51.082;5.832;2022-09-09T00:02:56;15.19;118.99
66506;HTU21D;53332;51.082;5.832;2022-09-09T00:08:02;15.09;118.99
66506;HTU21D;53332;51.082;5.832;2022-09-09T00:10:34;15.04;118.99
66506;HTU21D;53332;51.082;5.832;2022-09-09T00:15:59;14.96;118.99
66506;HTU21D;53332;51.082;5.832;2022-09-09T00:21:14;14.92;118.99
66506;HTU21D;53332;51.082;5.832;2022-09-09T00:23:51;14.91;118.99
66506;HTU21D;53332;51.082;5.832;2022-09-09T00:31:36;14.84;118.99
66506;HTU21D;53332;51.082;5.832;2022-09-09T00:34:20;14.83;118.99
66506;HTU21D;53332;51.082;5.832;2022-09-09T00:36:50;14.82;118.99
66506;HTU21D;53332;51.082;5.832;2022-09-09T00:39:40;14.82;118.99
66506;HTU21D;53332;51.082;5.832;2022-09-09T00:47:35;14.80;118.99
66506;HTU21D;53332;51.082;5.832;2022-09-09T00:56:13;14.74;118.99
66506;HTU21D;53332;51.082;5.832;2022-09-09T00:58:43;14.75;118.99
66506;HTU21D;53332;51.082;5.832;2022-09-09T01:01:15;14.74;118.99
66506;HTU21D;53332;51.082;5.832;2022-09-09T01:03:51;14.74;118.99
66506;HTU21D;53332;51.082;5.832;2022-09-09T01:06:37;14.72;118.99
66506;HTU21D;53332;51.082;5.832;2022-09-09T01:15:02;14.70;118.99
66506;HTU21D;53332;51.082;5.832;2022-09-09T01:17:37;14.77;118.99
66506;HTU21D;53332;51.082;5.832;2022-09-09T01:20:17;14.79;118.99
66506;HTU21D;53332;51.082;5.832;2022-09-09T01:26:15;14.74;118.99
66506;HTU21D;53332;51.082;5.832;2022-09-09T01:28:49;14.74;118.99
66506;HTU21D;53332;51.082;5.832;2022-09-09T01:31:23;14.75;118.99
66506;HTU21D;53332;51.082;5.832;2022-09-09T01:33:51;14.77;118.99
66506;HTU21D;53332;51.082;5.832;2022-09-09T01:38:52;14.74;118.99
66506;HTU21D;53332;51.082;5.832;2022-09-09T01:41:18;14.75;118.99
66506;HTU21D;53332;51.082;5.832;2022-09-09T01:43:44;14.73;118.99
66506;HTU21D;53332;51.082;5.832;2022-09-09T01:46:12;14.71;118.99
66506;HTU21D;53332;51.082;5.832;2022-09-09T01:48:40;14.69;118.99
66506;HTU21D;53332;51.082;5.832;2022-09-09T01:51:08;14.68;118.99
66506;HTU21D;53332;51.082;5.832;2022-09-09T01:53:34;14.69;118.99
66506;HTU21D;53332;51.082;5.832;2022-09-09T01:56:04;14.69;118.99
66506;HTU21D;53332;51.082;5.832;2022-09-09T02:04:45;14.70;118.99
66506;HTU21D;53332;51.082;5.832;2022-09-09T02:07:26;14.72;118.99
66506;HTU21D;53332;51.082;5.832;2022-09-09T02:10:12;14.73;118.99
66506;HTU21D;53332;51.082;5.832;2022-09-09T02:12:45;14.75;118.99
66506;HTU21D;53332;51.082;5.832;2022-09-09T02:18:11;14.75;118.99
66506;HTU21D;53332;51.082;5.832;2022-09-09T02:20:39;14.78;118.99
66506;HTU21D;53332;51.082;5.832;2022-09-09T02:23:07;14.79;118.99
66506;HTU21D;53332;51.082;5.832;2022-09-09T02:25:36;14.78;118.99
66506;HTU21D;53332;51.082;5.832;2022-09-09T02:28:06;14.78;118.99
66506;HTU21D;53332;51.082;5.832;2022-09-09T02:30:34;14.77;118.99
66506;HTU21D;53332;51.082;5.832;2022-09-09T02:33:05;14.78;118.99
66506;HTU21D;53332;51.082;5.832;2022-09-09T02:35:32;14.78;118.99
66506;HTU21D;53332;51.082;5.832;2022-09-09T02:38:08;14.79;118.99
66506;HTU21D;53332;51.082;5.832;2022-09-09T02:40:34;14.79;118.99
66506;HTU21D;53332;51.082;5.832;2022-09-09T02:43:00;14.80;118.99
66506;HTU21D;53332;51.082;5.832;2022-09-09T02:45:36;14.81;118.99
66506;HTU21D;53332;51.082;5.832;2022-09-09T02:50:56;14.83;118.99
66506;HTU21D;53332;51.082;5.832;2022-09-09T02:53:50;14.87;118.99
66506;HTU21D;53332;51.082;5.832;2022-09-09T02:56:23;14.87;118.99
66506;HTU21D;53332;51.082;5.832;2022-09-09T02:58:51;14.89;118.99
66506;HTU21D;53332;51.082;5.832;2022-09-09T03:01:17;14.91;118.99
66506;HTU21D;53332;51.082;5.832;2022-09-09T03:03:43;14.94;118.99
66506;HTU21D;53332;51.082;5.832;2022-09-09T03:06:10;14.98;118.99
66506;HTU21D;53332;51.082;5.832;2022-09-09T03:08:37;15.01;118.99
66506;HTU21D;53332;51.082;5.832;2022-09-09T03:11:03;15.01;118.99
66506;HTU21D;53332;51.082;5.832;2022-09-09T03:13:28;15.02;118.99
66506;HTU21D;53332;51.082;5.832;2022-09-09T03:15:54;15.02;118.99
66506;HTU21D;53332;51.082;5.832;2022-09-09T03:18:20;15.02;118.99
66506;HTU21D;53332;51.082;5.832;2022-09-09T03:20:46;15.02;118.99
66506;HTU21D;53332;51.082;5.832;2022-09-09T03:23:14;15.04;118.99
66506;HTU21D;53332;51.082;5.832;2022-09-09T03:25:39;15.04;118.99
66506;HTU21D;53332;51.082;5.832;2022-09-09T03:28:05;15.02;118.99
66506;HTU21D;53332;51.082;5.832;2022-09-09T03:30:30;15.04;118.99
66506;HTU21D;53332;51.082;5.832;2022-09-09T03:32:56;15.09;118.99
66506;HTU21D;53332;51.082;5.832;2022-09-09T03:35:22;15.12;118.99
66506;HTU21D;53332;51.082;5.832;2022-09-09T03:37:47;15.15;118.99
66506;HTU21D;53332;51.082;5.832;2022-09-09T03:40:13;15.16;118.99
66506;HTU21D;53332;51.082;5.832;2022-09-09T03:42:39;15.15;118.99
66506;HTU21D;53332;51.082;5.832;2022-09-09T03:45:08;15.16;118.99
66506;HTU21D;53332;51.082;5.832;2022-09-09T03:47:34;15.15;118.99
66506;HTU21D;53332;51.082;5.832;2022-09-09T03:50:00;15.17;118.99
66506;HTU21D;53332;51.082;5.832;2022-09-09T03:52:26;15.15;118.99
66506;HTU21D;53332;51.082;5.832;2022-09-09T03:54:53;15.17;118.99
66506;HTU21D;53332;51.082;5.832;2022-09-09T03:57:19;15.15;118.99
66506;HTU21D;53332;51.082;5.832;2022-09-09T03:59:45;15.17;118.99
66506;HTU21D;53332;51.082;5.832;2022-09-09T04:02:11;15.22;118.99
66506;HTU21D;53332;51.082;5.832;2022-09-09T04:04:37;15.28;118.99
66506;HTU21D;53332;51.082;5.832;2022-09-09T04:07:02;15.32;118.99
66506;HTU21D;53332;51.082;5.832;2022-09-09T04:09:28;15.38;118.99
66506;HTU21D;53332;51.082;5.832;2022-09-09T04:11:54;15.43;118.99
66506;HTU21D;53332;51.082;5.832;2022-09-09T04:14:20;15.46;118.99
66506;HTU21D;53332;51.082;5.832;2022-09-09T04:16:46;15.49;118.99
66506;HTU21D;53332;51.082;5.832;2022-09-09T04:19:13;15.55;118.99
66506;HTU21D;53332;51.082;5.832;2022-09-09T04:21:41;15.60;118.99
66506;HTU21D;53332;51.082;5.832;2022-09-09T04:24:08;15.67;118.99
66506;HTU21D;53332;51.082;5.832;2022-09-09T04:26:34;15.67;118.99
66506;HTU21D;53332;51.082;5.832;2022-09-09T04:29:02;15.69;118.99
66506;HTU21D;53332;51.082;5.832;2022-09-09T04:31:27;15.72;118.99
66506;HTU21D;53332;51.082;5.832;2022-09-09T04:33:53;15.74;118.99
66506;HTU21D;53332;51.082;5.832;2022-09-09T04:36:19;15.76;118.99
66506;HTU21D;53332;51.082;5.832;2022-09-09T04:38:46;15.80;118.99
66506;HTU21D;53332;51.082;5.832;2022-09-09T04:41:12;15.77;118.99
66506;HTU21D;53332;51.082;5.832;2022-09-09T04:43:39;15.76;118.99
66506;HTU21D;53332;51.082;5.832;2022-09-09T04:46:05;15.74;118.99
66506;HTU21D;53332;51.082;5.832;2022-09-09T04:48:31;15.73;118.99
66506;HTU21D;53332;51.082;5.832;2022-09-09T04:51:03;15.73;118.99
66506;HTU21D;53332;51.082;5.832;2022-09-09T04:53:30;15.71;118.99
66506;HTU21D;53332;51.082;5.832;2022-09-09T04:56:14;15.71;118.99
66506;HTU21D;53332;51.082;5.832;2022-09-09T04:58:40;15.67;118.99
66506;HTU21D;53332;51.082;5.832;2022-09-09T05:01:12;15.62;118.99
66506;HTU21D;53332;51.082;5.832;2022-09-09T05:03:38;15.58;118.99
66506;HTU21D;53332;51.082;5.832;2022-09-09T05:06:08;15.55;118.99
66506;HTU21D;53332;51.082;5.832;2022-09-09T05:08:39;15.51;118.99
66506;HTU21D;53332;51.082;5.832;2022-09-09T05:11:15;15.49;118.99
66506;HTU21D;53332;51.082;5.832;2022-09-09T05:13:41;15.46;118.99
66506;HTU21D;53332;51.082;5.832;2022-09-09T05:16:07;15.46;118.99
66506;HTU21D;53332;51.082;5.832;2022-09-09T05:18:35;15.44;118.99
66506;HTU21D;53332;51.082;5.832;2022-09-09T05:21:02;15.45;118.99
66506;HTU21D;53332;51.082;5.832;2022-09-09T05:23:27;15.45;118.99
66506;HTU21D;53332;51.082;5.832;2022-09-09T05:25:58;15.47;118.99
66506;HTU21D;53332;51.082;5.832;2022-09-09T05:28:27;15.51;118.99
66506;HTU21D;53332;51.082;5.832;2022-09-09T05:30:58;15.54;118.99
66506;HTU21D;53332;51.082;5.832;2022-09-09T05:33:24;15.58;118.99
66506;HTU21D;53332;51.082;5.832;2022-09-09T05:36:07;15.61;118.99
66506;HTU21D;53332;51.082;5.832;2022-09-09T05:38:34;15.68;118.99
66506;HTU21D;53332;51.082;5.832;2022-09-09T05:41:02;15.69;118.99
66506;HTU21D;53332;51.082;5.832;2022-09-09T05:43:28;15.69;118.99
66506;HTU21D;53332;51.082;5.832;2022-09-09T05:46:09;15.68;118.99
66506;HTU21D;53332;51.082;5.832;2022-09-09T05:48:37;15.68;118.99
66506;HTU21D;53332;51.082;5.832;2022-09-09T05:51:05;15.70;118.99
66506;HTU21D;53332;51.082;5.832;2022-09-09T05:53:32;15.74;118.99
66506;HTU21D;53332;51.082;5.832;2022-09-09T05:56:03;15.82;118.99
66506;HTU21D;53332;51.082;5.832;2022-09-09T05:58:34;15.89;118.99
66506;HTU21D;53332;51.082;5.832;2022-09-09T06:01:07;15.98;118.99
66506;HTU21D;53332;51.082;5.832;2022-09-09T06:03:38;16.01;118.99
66506;HTU21D;53332;51.082;5.832;2022-09-09T06:06:06;16.05;118.99
66506;HTU21D;53332;51.082;5.832;2022-09-09T06:08:37;16.06;118.99
66506;HTU21D;53332;51.082;5.832;2022-09-09T06:11:14;16.11;118.99
66506;HTU21D;53332;51.082;5.832;2022-09-09T06:13:40;16.19;118.99
66506;HTU21D;53332;51.082;5.832;2022-09-09T06:16:09;16.30;118.99
66506;HTU21D;53332;51.082;5.832;2022-09-09T06:18:37;16.37;118.99
66506;HTU21D;53332;51.082;5.832;2022-09-09T06:21:05;16.45;118.99
66506;HTU21D;53332;51.082;5.832;2022-09-09T06:23:33;16.59;118.99
66506;HTU21D;53332;51.082;5.832;2022-09-09T06:26:05;16.77;118.99
66506;HTU21D;53332;51.082;5.832;2022-09-09T06:28:32;17.01;118.99
66506;HTU21D;53332;51.082;5.832;2022-09-09T06:31:00;17.21;118.99
66506;HTU21D;53332;51.082;5.832;2022-09-09T06:33:26;17.35;118.99
66506;HTU21D;53332;51.082;5.832;2022-09-09T06:35:54;17.43;118.99
66506;HTU21D;53332;51.082;5.832;2022-09-09T06:38:20;17.46;118.99
66506;HTU21D;53332;51.082;5.832;2022-09-09T06:40:54;17.49;118.99
66506;HTU21D;53332;51.082;5.832;2022-09-09T06:43:23;17.53;118.99
66506;HTU21D;53332;51.082;5.832;2022-09-09T06:45:59;17.60;118.99
66506;HTU21D;53332;51.082;5.832;2022-09-09T06:48:26;17.69;118.99
66506;HTU21D;53332;51.082;5.832;2022-09-09T06:53:42;17.74;118.99
66506;HTU21D;53332;51.082;5.832;2022-09-09T06:58:37;17.80;118.99
66506;HTU21D;53332;51.082;5.832;2022-09-09T07:01:07;17.83;118.99
66506;HTU21D;53332;51.082;5.832;2022-09-09T07:03:33;17.83;118.99
66506;HTU21D;53332;51.082;5.832;2022-09-09T07:05:59;17.80;118.99
66506;HTU21D;53332;51.082;5.832;2022-09-09T07:08:25;17.70;118.99
66506;HTU21D;53332;51.082;5.832;2022-09-09T07:10:52;17.63;118.99
66506;HTU21D;53332;51.082;5.832;2022-09-09T07:13:26;17.63;118.99
66506;HTU21D;53332;51.082;5.832;2022-09-09T07:15:52;17.65;118.99
66506;HTU21D;53332;51.082;5.832;2022-09-09T07:18:21;17.63;118.99
66506;HTU21D;53332;51.082;5.832;2022-09-09T07:20:56;17.65;118.99
66506;HTU21D;53332;51.082;5.832;2022-09-09T07:23:23;17.67;118.99
66506;HTU21D;53332;51.082;5.832;2022-09-09T07:25:49;17.70;118.99
66506;HTU21D;53332;51.082;5.832;2022-09-09T07:28:16;17.75;118.99
66506;HTU21D;53332;51.082;5.832;2022-09-09T07:30:42;17.78;118.99
66506;HTU21D;53332;51.082;5.832;2022-09-09T07:33:09;17.83;118.99
66506;HTU21D;53332;51.082;5.832;2022-09-09T07:35:39;17.89;118.99
66506;HTU21D;53332;51.082;5.832;2022-09-09T07:38:05;17.99;118.99
66506;HTU21D;53332;51.082;5.832;2022-09-09T07:40:33;18.21;118.99
66506;HTU21D;53332;51.082;5.832;2022-09-09T07:42:59;18.50;118.99
66506;HTU21D;53332;51.082;5.832;2022-09-09T07:45:26;18.70;118.99
66506;HTU21D;53332;51.082;5.832;2022-09-09T07:47:53;18.91;118.99
66506;HTU21D;53332;51.082;5.832;2022-09-09T07:50:20;18.94;118.79
66506;HTU21D;53332;51.082;5.832;2022-09-09T07:52:46;18.93;118.42
66506;HTU21D;53332;51.082;5.832;2022-09-09T07:55:11;18.91;117.28
66506;HTU21D;53332;51.082;5.832;2022-09-09T07:57:37;18.83;116.51
66506;HTU21D;53332;51.082;5.832;2022-09-09T08:00:04;18.74;115.88
66506;HTU21D;53332;51.082;5.832;2022-09-09T08:02:29;18.70;116.16
66506;HTU21D;53332;51.082;5.832;2022-09-09T08:04:55;18.66;115.40
66506;HTU21D;53332;51.082;5.832;2022-09-09T08:07:22;18.72;115.84
66506;HTU21D;53332;51.082;5.832;2022-09-09T08:09:48;18.80;115.12
66506;HTU21D;53332;51.082;5.832;2022-09-09T08:12:15;18.86;114.37
66506;HTU21D;53332;51.082;5.832;2022-09-09T08:14:40;18.91;113.36
66506;HTU21D;53332;51.082;5.832;2022-09-09T08:17:06;18.93;112.13
66506;HTU21D;53332;51.082;5.832;2022-09-09T08:19:32;19.01;112.65
66506;HTU21D;53332;51.082;5.832;2022-09-09T08:22:01;19.25;112.74
66506;HTU21D;53332;51.082;5.832;2022-09-09T08:24:28;19.41;111.27
66506;HTU21D;53332;51.082;5.832;2022-09-09T08:26:54;19.51;110.89
66506;HTU21D;53332;51.082;5.832;2022-09-09T08:29:22;19.71;110.64
66506;HTU21D;53332;51.082;5.832;2022-09-09T08:31:53;19.95;108.79
66506;HTU21D;53332;51.082;5.832;2022-09-09T08:34:24;20.10;106.47
66506;HTU21D;53332;51.082;5.832;2022-09-09T08:36:53;20.19;105.25
66506;HTU21D;53332;51.082;5.832;2022-09-09T08:39:21;20.30;103.82
66506;HTU21D;53332;51.082;5.832;2022-09-09T08:50:05;20.44;101.81
66506;HTU21D;53332;51.082;5.832;2022-09-09T08:55:24;20.36;101.95
66506;HTU21D;53332;51.082;5.832;2022-09-09T08:57:54;20.32;101.73
66506;HTU21D;53332;51.082;5.832;2022-09-09T09:00:20;20.32;101.31
66506;HTU21D;53332;51.082;5.832;2022-09-09T09:05:43;20.28;101.24
66506;HTU21D;53332;51.082;5.832;2022-09-09T09:08:43;20.17;101.06
66506;HTU21D;53332;51.082;5.832;2022-09-09T09:11:10;20.05;101.41
66506;HTU21D;53332;51.082;5.832;2022-09-09T09:16:31;19.88;101.72
66506;HTU21D;53332;51.082;5.832;2022-09-09T09:18:59;19.75;100.83
66506;HTU21D;53332;51.082;5.832;2022-09-09T09:21:44;19.65;102.22
66506;HTU21D;53332;51.082;5.832;2022-09-09T09:24:24;19.79;102.94
66506;HTU21D;53332;51.082;5.832;2022-09-09T09:26:52;19.99;101.49
66506;HTU21D;53332;51.082;5.832;2022-09-09T09:29:19;20.16;101.51
66506;HTU21D;53332;51.082;5.832;2022-09-09T09:32:05;20.35;100.34
66506;HTU21D;53332;51.082;5.832;2022-09-09T09:34:33;20.56;99.55
66506;HTU21D;53332;51.082;5.832;2022-09-09T09:37:01;20.60;97.82
66506;HTU21D;53332;51.082;5.832;2022-09-09T09:39:33;20.54;97.65
66506;HTU21D;53332;51.082;5.832;2022-09-09T09:42:17;20.55;98.58
66506;HTU21D;53332;51.082;5.832;2022-09-09T09:44:43;20.53;97.68
66506;HTU21D;53332;51.082;5.832;2022-09-09T09:47:16;20.46;98.15
66506;HTU21D;53332;51.082;5.832;2022-09-09T09:50:18;20.61;97.84
66506;HTU21D;53332;51.082;5.832;2022-09-09T09:52:54;20.88;97.70
66506;HTU21D;53332;51.082;5.832;2022-09-09T09:55:21;21.21;97.36
66506;HTU21D;53332;51.082;5.832;2022-09-09T09:57:48;21.37;95.59
66506;HTU21D;53332;51.082;5.832;2022-09-09T10:02:42;21.32;94.43
66506;HTU21D;53332;51.082;5.832;2022-09-09T10:07:44;20.91;96.04
66506;HTU21D;53332;51.082;5.832;2022-09-09T10:10:24;20.66;98.23
66506;HTU21D;53332;51.082;5.832;2022-09-09T10:26:51;21.23;97.93
66506;HTU21D;53332;51.082;5.832;2022-09-09T10:32:36;20.87;96.55
66506;HTU21D;53332;51.082;5.832;2022-09-09T10:35:04;20.61;97.51
66506;HTU21D;53332;51.082;5.832;2022-09-09T10:40:40;20.46;98.21
66506;HTU21D;53332;51.082;5.832;2022-09-09T10:45:51;20.57;96.67
66506;HTU21D;53332;51.082;5.832;2022-09-09T10:51:20;20.36;96.88
66506;HTU21D;53332;51.082;5.832;2022-09-09T10:57:02;20.26;97.65
66506;HTU21D;53332;51.082;5.832;2022-09-09T10:59:39;20.27;97.83
66506;HTU21D;53332;51.082;5.832;2022-09-09T11:02:14;20.26;97.45
66506;HTU21D;53332;51.082;5.832;2022-09-09T11:04:58;20.22;97.46
66506;HTU21D;53332;51.082;5.832;2022-09-09T11:07:37;20.14;99.32
66506;HTU21D;53332;51.082;5.832;2022-09-09T11:10:23;19.86;102.31
66506;HTU21D;53332;51.082;5.832;2022-09-09T11:12:56;19.56;108.42
66506;HTU21D;53332;51.082;5.832;2022-09-09T11:15:35;19.41;112.00
66506;HTU21D;53332;51.082;5.832;2022-09-09T11:18:04;19.13;118.99
66506;HTU21D;53332;51.082;5.832;2022-09-09T11:20:32;18.52;118.99
66506;HTU21D;53332;51.082;5.832;2022-09-09T11:23:23;18.14;118.99
66506;HTU21D;53332;51.082;5.832;2022-09-09T11:25:56;18.09;118.99
66506;HTU21D;53332;51.082;5.832;2022-09-09T11:31:14;18.61;118.99
66506;HTU21D;53332;51.082;5.832;2022-09-09T11:34:06;19.17;118.99
66506;HTU21D;53332;51.082;5.832;2022-09-09T11:42:21;20.37;114.24
66506;HTU21D;53332;51.082;5.832;2022-09-09T11:44:47;20.62;112.88
66506;HTU21D;53332;51.082;5.832;2022-09-09T11:47:21;20.84;111.99
66506;HTU21D;53332;51.082;5.832;2022-09-09T11:49:50;20.99;110.79
66506;HTU21D;53332;51.082;5.832;2022-09-09T11:52:42;21.23;109.42
66506;HTU21D;53332;51.082;5.832;2022-09-09T11:55:31;21.44;107.43
66506;HTU21D;53332;51.082;5.832;2022-09-09T12:03:00;21.39;103.20
66506;HTU21D;53332;51.082;5.832;2022-09-09T12:05:55;21.54;101.34
66506;HTU21D;53332;51.082;5.832;2022-09-09T12:08:27;21.62;100.20
66506;HTU21D;53332;51.082;5.832;2022-09-09T12:10:58;21.61;99.39
66506;HTU21D;53332;51.082;5.832;2022-09-09T12:13:28;21.64;98.80
66506;HTU21D;53332;51.082;5.832;2022-09-09T12:15:57;21.55;98.69
66506;HTU21D;53332;51.082;5.832;2022-09-09T12:21:00;21.45;100.22
66506;HTU21D;53332;51.082;5.832;2022-09-09T12:31:56;22.56;97.48
66506;HTU21D;53332;51.082;5.832;2022-09-09T12:37:21;22.91;95.79
66506;HTU21D;53332;51.082;5.832;2022-09-09T12:39:58;22.91;94.84
66506;HTU21D;53332;51.082;5.832;2022-09-09T12:42:26;22.87;94.98
66506;HTU21D;53332;51.082;5.832;2022-09-09T12:44:52;22.84;94.86
66506;HTU21D;53332;51.082;5.832;2022-09-09T12:47:22;22.65;94.38
66506;HTU21D;53332;51.082;5.832;2022-09-09T12:49:50;22.50;96.20
66506;HTU21D;53332;51.082;5.832;2022-09-09T12:52:35;22.33;96.30
66506;HTU21D;53332;51.082;5.832;2022-09-09T12:55:04;22.13;96.03
66506;HTU21D;53332;51.082;5.832;2022-09-09T12:57:36;21.72;96.69
66506;HTU21D;53332;51.082;5.832;2022-09-09T13:00:23;20.79;102.06
66506;HTU21D;53332;51.082;5.832;2022-09-09T13:02:55;19.83;104.23
66506;HTU21D;53332;51.082;5.832;2022-09-09T13:05:35;19.17;107.91
66506;HTU21D;53332;51.082;5.832;2022-09-09T13:08:12;18.79;110.71
66506;HTU21D;53332;51.082;5.832;2022-09-09T13:13:16;18.38;113.03
66506;HTU21D;53332;51.082;5.832;2022-09-09T13:16:19;18.22;114.59
66506;HTU21D;53332;51.082;5.832;2022-09-09T13:18:45;18.14;115.49
66506;HTU21D;53332;51.082;5.832;2022-09-09T13:21:12;18.17;116.41
66506;HTU21D;53332;51.082;5.832;2022-09-09T13:23:38;18.22;116.46
66506;HTU21D;53332;51.082;5.832;2022-09-09T13:26:23;18.26;115.86
66506;HTU21D;53332;51.082;5.832;2022-09-09T13:28:48;18.30;116.46
66506;HTU21D;53332;51.082;5.832;2022-09-09T13:31:24;18.43;116.38
66506;HTU21D;53332;51.082;5.832;2022-09-09T13:33:50;18.57;115.54
66506;HTU21D;53332;51.082;5.832;2022-09-09T13:36:15;18.73;114.74
66506;HTU21D;53332;51.082;5.832;2022-09-09T13:41:24;19.18;113.67
66506;HTU21D;53332;51.082;5.832;2022-09-09T13:43:51;19.41;113.02
66506;HTU21D;53332;51.082;5.832;2022-09-09T13:46:33;19.62;112.38
66506;HTU21D;53332;51.082;5.832;2022-09-09T13:49:22;19.84;112.15
66506;HTU21D;53332;51.082;5.832;2022-09-09T13:52:02;20.07;112.03
66506;HTU21D;53332;51.082;5.832;2022-09-09T13:54:28;20.31;111.47
66506;HTU21D;53332;51.082;5.832;2022-09-09T13:56:56;20.49;110.79
66506;HTU21D;53332;51.082;5.832;2022-09-09T13:59:21;20.61;110.19
66506;HTU21D;53332;51.082;5.832;2022-09-09T14:01:47;20.81;109.52
66506;HTU21D;53332;51.082;5.832;2022-09-09T14:04:15;21.03;108.69
66506;HTU21D;53332;51.082;5.832;2022-09-09T14:06:42;21.16;108.47
66506;HTU21D;53332;51.082;5.832;2022-09-09T14:09:12;21.28;108.14
66506;HTU21D;53332;51.082;5.832;2022-09-09T14:11:38;21.38;107.20
66506;HTU21D;53332;51.082;5.832;2022-09-09T14:14:07;21.49;106.74
66506;HTU21D;53332;51.082;5.832;2022-09-09T14:16:33;21.57;106.65
66506;HTU21D;53332;51.082;5.832;2022-09-09T14:18:58;21.61;106.01
66506;HTU21D;53332;51.082;5.832;2022-09-09T14:21:27;21.65;106.35
66506;HTU21D;53332;51.082;5.832;2022-09-09T14:23:53;21.73;105.95
66506;HTU21D;53332;51.082;5.832;2022-09-09T14:26:21;21.79;106.01
66506;HTU21D;53332;51.082;5.832;2022-09-09T14:28:47;21.69;104.78
66506;HTU21D;53332;51.082;5.832;2022-09-09T14:31:15;21.51;105.15
66506;HTU21D;53332;51.082;5.832;2022-09-09T14:33:42;21.54;105.18
66506;HTU21D;53332;51.082;5.832;2022-09-09T14:36:09;21.66;104.39
66506;HTU21D;53332;51.082;5.832;2022-09-09T14:38:37;21.73;103.34
66506;HTU21D;53332;51.082;5.832;2022-09-09T14:41:12;21.72;103.01
66506;HTU21D;53332;51.082;5.832;2022-09-09T14:43:39;21.83;101.61
66506;HTU21D;53332;51.082;5.832;2022-09-09T14:46:10;22.07;101.78
66506;HTU21D;53332;51.082;5.832;2022-09-09T14:48:35;22.39;99.58
66506;HTU21D;53332;51.082;5.832;2022-09-09T14:51:08;22.43;96.75
66506;HTU21D;53332;51.082;5.832;2022-09-09T14:53:34;22.34;96.46
66506;HTU21D;53332;51.082;5.832;2022-09-09T14:56:14;22.16;97.97
66506;HTU21D;53332;51.082;5.832;2022-09-09T14:58:40;22.08;97.43
66506;HTU21D;53332;51.082;5.832;2022-09-09T15:01:14;21.95;97.03
66506;HTU21D;53332;51.082;5.832;2022-09-09T15:03:55;21.81;97.30
66506;HTU21D;53332;51.082;5.832;2022-09-09T15:06:22;21.83;97.92
66506;HTU21D;53332;51.082;5.832;2022-09-09T15:08:50;21.85;97.13
66506;HTU21D;53332;51.082;5.832;2022-09-09T15:11:17;21.74;97.29
66506;HTU21D;53332;51.082;5.832;2022-09-09T15:13:44;21.66;98.13
66506;HTU21D;53332;51.082;5.832;2022-09-09T15:16:15;21.76;98.23
66506;HTU21D;53332;51.082;5.832;2022-09-09T15:18:42;22.02;97.78
66506;HTU21D;53332;51.082;5.832;2022-09-09T15:21:12;22.25;96.96
66506;HTU21D;53332;51.082;5.832;2022-09-09T15:23:40;22.39;96.73
66506;HTU21D;53332;51.082;5.832;2022-09-09T15:26:10;22.41;96.07
66506;HTU21D;53332;51.082;5.832;2022-09-09T15:28:37;22.39;95.92
66506;HTU21D;53332;51.082;5.832;2022-09-09T15:31:24;22.22;95.11
66506;HTU21D;53332;51.082;5.832;2022-09-09T15:34:01;21.94;95.74
66506;HTU21D;53332;51.082;5.832;2022-09-09T15:36:29;21.69;96.71
66506;HTU21D;53332;51.082;5.832;2022-09-09T15:38:55;21.53;97.38
66506;HTU21D;53332;51.082;5.832;2022-09-09T15:41:22;21.45;97.52
66506;HTU21D;53332;51.082;5.832;2022-09-09T15:43:50;21.40;97.81
66506;HTU21D;53332;51.082;5.832;2022-09-09T15:48:45;21.23;97.08
66506;HTU21D;53332;51.082;5.832;2022-09-09T15:51:12;21.11;97.61
66506;HTU21D;53332;51.082;5.832;2022-09-09T15:53:38;21.09;98.29
66506;HTU21D;53332;51.082;5.832;2022-09-09T15:56:07;21.20;98.59
66506;HTU21D;53332;51.082;5.832;2022-09-09T15:58:35;21.30;97.20
66506;HTU21D;53332;51.082;5.832;2022-09-09T16:01:04;21.31;96.49
66506;HTU21D;53332;51.082;5.832;2022-09-09T16:03:37;21.38;96.62
66506;HTU21D;53332;51.082;5.832;2022-09-09T16:06:05;21.47;96.09
66506;HTU21D;53332;51.082;5.832;2022-09-09T16:11:07;21.39;95.84
66506;HTU21D;53332;51.082;5.832;2022-09-09T16:13:37;21.39;96.36
66506;HTU21D;53332;51.082;5.832;2022-09-09T16:16:03;21.44;96.76
66506;HTU21D;53332;51.082;5.832;2022-09-09T16:18:38;21.46;96.42
66506;HTU21D;53332;51.082;5.832;2022-09-09T16:21:04;21.49;96.07
66506;HTU21D;53332;51.082;5.832;2022-09-09T16:23:34;21.46;95.66
66506;HTU21D;53332;51.082;5.832;2022-09-09T16:26:01;21.43;95.70
66506;HTU21D;53332;51.082;5.832;2022-09-09T16:28:27;21.38;95.78
66506;HTU21D;53332;51.082;5.832;2022-09-09T16:30:53;21.40;95.48
66506;HTU21D;53332;51.082;5.832;2022-09-09T16:33:19;21.39;95.93
66506;HTU21D;53332;51.082;5.832;2022-09-09T16:35:45;21.46;95.01
66506;HTU21D;53332;51.082;5.832;2022-09-09T16:38:11;21.38;95.16
66506;HTU21D;53332;51.082;5.832;2022-09-09T16:40:37;21.36;95.63
66506;HTU21D;53332;51.082;5.832;2022-09-09T16:43:04;21.30;95.85
66506;HTU21D;53332;51.082;5.832;2022-09-09T16:45:31;21.15;96.31
66506;HTU21D;53332;51.082;5.832;2022-09-09T16:47:58;20.95;96.69
66506;HTU21D;53332;51.082;5.832;2022-09-09T16:50:24;20.80;97.32
66506;HTU21D;53332;51.082;5.832;2022-09-09T16:52:51;20.62;98.16
66506;HTU21D;53332;51.082;5.832;2022-09-09T16:55:17;20.53;98.72
66506;HTU21D;53332;51.082;5.832;2022-09-09T16:57:46;20.44;99.23
66506;HTU21D;53332;51.082;5.832;2022-09-09T17:00:15;20.37;99.42
66506;HTU21D;53332;51.082;5.832;2022-09-09T17:02:44;20.27;99.75
66506;HTU21D;53332;51.082;5.832;2022-09-09T17:05:10;20.15;99.14
66506;HTU21D;53332;51.082;5.832;2022-09-09T17:07:38;19.99;98.87
66506;HTU21D;53332;51.082;5.832;2022-09-09T17:10:06;19.85;98.96
66506;HTU21D;53332;51.082;5.832;2022-09-09T17:12:32;19.73;98.91
66506;HTU21D;53332;51.082;5.832;2022-09-09T17:14:58;19.67;99.45
66506;HTU21D;53332;51.082;5.832;2022-09-09T17:17:25;19.59;99.86
66506;HTU21D;53332;51.082;5.832;2022-09-09T17:19:52;19.52;100.56
66506;HTU21D;53332;51.082;5.832;2022-09-09T17:22:18;19.43;100.98
66506;HTU21D;53332;51.082;5.832;2022-09-09T17:24:45;19.33;101.86
66506;HTU21D;53332;51.082;5.832;2022-09-09T17:27:11;19.27;102.66
66506;HTU21D;53332;51.082;5.832;2022-09-09T17:29:38;19.24;103.20
66506;HTU21D;53332;51.082;5.832;2022-09-09T17:32:05;19.22;103.83
66506;HTU21D;53332;51.082;5.832;2022-09-09T17:34:33;19.17;104.31
66506;HTU21D;53332;51.082;5.832;2022-09-09T17:36:58;19.16;104.71
66506;HTU21D;53332;51.082;5.832;2022-09-09T17:39:24;19.15;105.08
66506;HTU21D;53332;51.082;5.832;2022-09-09T17:41:51;19.12;105.63
66506;HTU21D;53332;51.082;5.832;2022-09-09T17:44:17;19.11;105.66